createdAt,value
2023-02-05T00:01:21.988Z,7.20
2023-02-05T00:03:48.690Z,7.20
2023-02-05T00:06:15.274Z,7.20
2023-02-05T00:08:41.808Z,7.20
2023-02-05T00:11:09.604Z,7.20
2023-02-05T00:13:36.916Z,7.20
2023-02-05T00:16:06.535Z,7.20
2023-02-05T00:18:33.038Z,7.20
2023-02-05T00:21:02.813Z,7.20
2023-02-05T00:23:29.305Z,7.10
2023-02-05T00:25:55.857Z,7.00
2023-02-05T00:28:22.525Z,7.00
2023-02-05T00:30:49.222Z,7.10
2023-02-05T00:33:15.800Z,7.10
2023-02-05T00:35:43.052Z,7.10
2023-02-05T00:38:09.595Z,7.00
2023-02-05T00:40:36.112Z,7.00
2023-02-05T00:43:02.663Z,7.10
2023-02-05T00:45:35.160Z,7.10
2023-02-05T00:48:02.890Z,7.00
2023-02-05T00:50:29.533Z,7.00
2023-02-05T00:52:56.132Z,6.90
2023-02-05T00:55:22.723Z,6.90
2023-02-05T00:57:49.307Z,6.90
2023-02-05T01:00:16.252Z,6.90
2023-02-05T01:02:42.851Z,6.90
2023-02-05T01:05:09.544Z,6.90
2023-02-05T01:07:36.134Z,6.90
2023-02-05T01:10:02.638Z,6.80
2023-02-05T01:12:29.203Z,6.80
2023-02-05T01:14:55.744Z,6.70
2023-02-05T01:17:23.264Z,6.60
2023-02-05T01:19:49.905Z,6.60
2023-02-05T01:22:16.447Z,6.50
2023-02-05T01:24:42.959Z,6.40
2023-02-05T01:27:09.480Z,6.40
2023-02-05T01:29:36.093Z,6.30
2023-02-05T01:32:05.711Z,6.30
2023-02-05T01:34:32.243Z,6.30
2023-02-05T01:36:58.828Z,6.30
2023-02-05T01:39:25.376Z,6.30
2023-02-05T01:41:51.955Z,6.30
2023-02-05T01:44:24.477Z,6.20
2023-02-05T01:46:51.913Z,6.20
2023-02-05T01:49:21.884Z,6.20
2023-02-05T01:51:49.179Z,6.20
2023-02-05T01:54:17.963Z,6.30
2023-02-05T01:57:11.374Z,6.30
2023-02-05T01:59:41.000Z,6.30
2023-02-05T02:02:08.004Z,6.30
2023-02-05T02:04:45.627Z,6.30
2023-02-05T02:07:15.783Z,6.20
2023-02-05T02:09:43.218Z,6.30
2023-02-05T02:12:10.896Z,6.30
2023-02-05T02:14:38.364Z,6.30
2023-02-05T02:17:06.334Z,6.30
2023-02-05T02:19:38.859Z,6.30
2023-02-05T02:22:14.599Z,6.30
2023-02-05T02:25:00.226Z,6.30
2023-02-05T02:27:32.849Z,6.20
2023-02-05T02:30:08.675Z,6.20
2023-02-05T02:32:43.521Z,6.20
2023-02-05T02:35:13.095Z,6.20
2023-02-05T02:37:45.920Z,6.20
2023-02-05T02:40:21.872Z,6.20
2023-02-05T02:42:51.531Z,6.20
2023-02-05T02:45:19.940Z,6.20
2023-02-05T02:47:54.895Z,6.10
2023-02-05T02:50:21.425Z,6.10
2023-02-05T02:52:49.420Z,6.10
2023-02-05T02:55:18.512Z,6.10
2023-02-05T02:57:46.300Z,6.20
2023-02-05T03:00:15.028Z,6.10
2023-02-05T03:02:43.632Z,6.20
2023-02-05T03:05:12.889Z,6.20
2023-02-05T03:07:41.892Z,6.30
2023-02-05T03:10:20.490Z,6.40
2023-02-05T03:12:47.067Z,6.30
2023-02-05T03:15:13.794Z,6.30
2023-02-05T03:17:41.074Z,6.30
2023-02-05T03:20:16.791Z,6.30
2023-02-05T03:22:43.441Z,6.30
2023-02-05T03:25:10.302Z,6.20
2023-02-05T03:27:37.329Z,6.20
2023-02-05T03:30:05.014Z,6.10
2023-02-05T03:32:31.561Z,6.10
2023-02-05T03:35:27.516Z,6.10
2023-02-05T03:38:12.717Z,6.10
2023-02-05T03:40:49.862Z,6.10
2023-02-05T03:43:21.139Z,6.00
2023-02-05T03:45:53.911Z,6.00
2023-02-05T03:48:28.362Z,6.00
2023-02-05T03:51:06.799Z,6.00
2023-02-05T03:53:37.266Z,6.10
2023-02-05T03:56:05.765Z,6.10
2023-02-05T03:58:40.532Z,6.00
2023-02-05T04:01:08.439Z,6.10
2023-02-05T04:03:35.039Z,6.10
2023-02-05T04:06:01.642Z,6.10
2023-02-05T04:08:28.251Z,6.10
2023-02-05T04:10:54.810Z,6.10
2023-02-05T04:13:21.354Z,6.10
2023-02-05T04:15:48.854Z,6.00
2023-02-05T04:18:15.636Z,6.10
2023-02-05T04:20:42.126Z,6.00
2023-02-05T04:23:08.750Z,6.00
2023-02-05T04:25:41.588Z,6.00
2023-02-05T04:28:09.982Z,5.90
2023-02-05T04:30:36.537Z,5.90
2023-02-05T04:33:03.151Z,5.90
2023-02-05T04:35:29.699Z,5.90
2023-02-05T04:37:56.267Z,5.90
2023-02-05T04:40:22.747Z,6.00
2023-02-05T04:42:49.295Z,6.00
2023-02-05T04:45:15.774Z,6.00
2023-02-05T04:47:44.653Z,6.00
2023-02-05T04:50:11.229Z,6.10
2023-02-05T04:52:37.850Z,6.10
2023-02-05T04:55:04.514Z,6.00
2023-02-05T04:57:31.298Z,6.00
2023-02-05T04:59:57.798Z,6.00
2023-02-05T05:02:24.726Z,6.00
2023-02-05T05:04:51.293Z,6.00
2023-02-05T05:07:17.818Z,6.10
2023-02-05T05:09:44.628Z,6.10
2023-02-05T05:12:11.251Z,6.10
2023-02-05T05:14:37.770Z,6.20
2023-02-05T05:19:29.730Z,6.20
2023-02-05T05:21:56.256Z,6.20
2023-02-05T05:24:22.850Z,6.20
2023-02-05T05:26:49.349Z,6.30
2023-02-05T05:29:15.872Z,6.20
2023-02-05T05:31:42.717Z,6.20
2023-02-05T05:34:09.253Z,6.10
2023-02-05T05:36:35.763Z,6.10
2023-02-05T05:39:20.758Z,6.10
2023-02-05T05:42:05.837Z,6.10
2023-02-05T05:44:32.380Z,6.10
2023-02-05T05:46:58.865Z,6.20
2023-02-05T05:49:25.423Z,6.10
2023-02-05T05:51:51.912Z,6.10
2023-02-05T05:54:18.406Z,6.20
2023-02-05T05:56:45.140Z,6.20
2023-02-05T05:59:15.097Z,6.30
2023-02-05T06:01:41.697Z,6.30
2023-02-05T06:04:08.304Z,6.40
2023-02-05T06:06:34.913Z,6.40
2023-02-05T06:09:01.562Z,6.40
2023-02-05T06:11:28.062Z,6.40
2023-02-05T06:13:54.631Z,6.40
2023-02-05T06:16:21.223Z,6.40
2023-02-05T06:18:47.963Z,6.40
2023-02-05T06:21:14.483Z,6.30
2023-02-05T06:23:41.074Z,6.30
2023-02-05T06:26:07.642Z,6.30
2023-02-05T06:28:34.169Z,6.30
2023-02-05T06:31:00.863Z,6.30
2023-02-05T06:33:27.577Z,6.30
2023-02-05T06:35:54.146Z,6.30
2023-02-05T06:38:20.670Z,6.30
2023-02-05T06:40:47.739Z,6.40
2023-02-05T06:43:14.398Z,6.40
2023-02-05T06:45:43.924Z,6.40
2023-02-05T06:48:10.463Z,6.40
2023-02-05T06:50:37.001Z,6.50
2023-02-05T06:53:03.590Z,6.50
2023-02-05T06:55:30.126Z,6.50
2023-02-05T06:57:56.663Z,6.50
2023-02-05T07:00:23.172Z,6.50
2023-02-05T07:02:49.750Z,6.50
2023-02-05T07:05:16.308Z,6.50
2023-02-05T07:07:42.889Z,6.60
2023-02-05T07:10:09.645Z,6.60
2023-02-05T07:12:36.224Z,6.60
2023-02-05T07:15:03.007Z,6.60
2023-02-05T07:17:32.658Z,6.60
2023-02-05T07:19:59.208Z,6.60
2023-02-05T07:22:25.862Z,6.60
2023-02-05T07:24:52.445Z,6.60
2023-02-05T07:27:19.002Z,6.60
2023-02-05T07:29:45.488Z,6.60
2023-02-05T07:32:12.202Z,6.60
2023-02-05T07:34:38.756Z,6.60
2023-02-05T07:37:05.243Z,6.60
2023-02-05T07:39:33.294Z,6.60
2023-02-05T07:42:00.376Z,6.60
2023-02-05T07:44:26.959Z,6.70
2023-02-05T07:46:53.618Z,6.70
2023-02-05T07:49:20.147Z,6.70
2023-02-05T07:51:47.981Z,6.80
2023-02-05T07:54:15.559Z,6.80
2023-02-05T07:56:42.387Z,6.80
2023-02-05T07:59:08.913Z,6.80
2023-02-05T08:01:35.504Z,6.80
2023-02-05T08:04:02.095Z,6.80
2023-02-05T08:06:28.835Z,6.80
2023-02-05T08:08:56.153Z,6.80
2023-02-05T08:11:22.728Z,6.80
2023-02-05T08:13:49.256Z,6.70
2023-02-05T08:16:16.108Z,6.70
2023-02-05T08:18:43.236Z,6.60
2023-02-05T08:21:09.829Z,6.60
2023-02-05T08:23:36.333Z,6.60
2023-02-05T08:26:02.878Z,6.60
2023-02-05T08:28:29.645Z,6.60
2023-02-05T08:30:56.648Z,6.60
2023-02-05T08:33:23.299Z,6.70
2023-02-05T08:35:49.918Z,6.70
2023-02-05T08:38:16.758Z,6.70
2023-02-05T08:40:43.288Z,6.70
2023-02-05T08:43:09.763Z,6.70
2023-02-05T08:45:36.786Z,6.70
2023-02-05T08:48:03.638Z,6.70
2023-02-05T08:50:30.178Z,6.70
2023-02-05T08:52:56.782Z,6.70
2023-02-05T08:55:23.455Z,6.70
2023-02-05T08:57:49.983Z,6.70
2023-02-05T09:00:16.854Z,6.60
2023-02-05T09:02:43.605Z,6.60
2023-02-05T09:05:10.585Z,6.60
2023-02-05T09:07:38.255Z,6.60
2023-02-05T09:10:05.909Z,6.60
2023-02-05T09:12:32.385Z,6.60
2023-02-05T09:14:58.973Z,6.50
2023-02-05T09:17:25.590Z,6.50
2023-02-05T09:19:55.641Z,6.50
2023-02-05T09:22:22.282Z,6.50
2023-02-05T09:24:48.911Z,6.50
2023-02-05T09:27:15.510Z,6.50
2023-02-05T09:29:42.174Z,6.40
2023-02-05T09:32:08.758Z,6.40
2023-02-05T09:34:35.362Z,6.40
2023-02-05T09:37:02.060Z,6.50
2023-02-05T09:40:12.046Z,6.50
2023-02-05T09:42:27.914Z,6.50
2023-02-05T09:44:57.737Z,6.40
2023-02-05T09:47:59.569Z,6.40
2023-02-05T09:50:29.723Z,6.40
2023-02-05T09:53:07.218Z,6.30
2023-02-05T09:55:36.340Z,6.30
2023-02-05T09:58:06.540Z,6.30
2023-02-05T10:00:44.967Z,6.30
2023-02-05T10:03:32.267Z,6.30
2023-02-05T10:06:15.705Z,6.30
2023-02-05T10:08:53.297Z,6.30
2023-02-05T10:11:34.176Z,6.30
2023-02-05T10:14:03.677Z,6.30
2023-02-05T10:16:30.239Z,6.30
2023-02-05T10:19:15.716Z,6.20
2023-02-05T10:22:11.712Z,6.10
2023-02-05T10:24:44.317Z,6.10
2023-02-05T10:27:17.075Z,6.20
2023-02-05T10:30:02.553Z,6.20
2023-02-05T10:32:58.569Z,6.20
2023-02-05T10:35:44.583Z,6.10
2023-02-05T10:38:22.514Z,6.00
2023-02-05T10:40:51.156Z,6.00
2023-02-05T10:43:17.669Z,6.00
2023-02-05T10:45:44.448Z,6.00
2023-02-05T10:51:00.013Z,6.00
2023-02-05T10:53:27.189Z,6.00
2023-02-05T10:55:54.185Z,5.90
2023-02-05T10:58:56.331Z,6.00
2023-02-05T11:01:24.795Z,6.00
2023-02-05T11:04:11.774Z,6.00
2023-02-05T11:06:40.712Z,6.00
2023-02-05T11:09:25.350Z,6.00
2023-02-05T11:11:52.990Z,6.00
2023-02-05T11:14:22.577Z,6.00
2023-02-05T11:16:49.154Z,6.00
2023-02-05T11:19:23.172Z,6.00
2023-02-05T11:21:52.073Z,6.00
2023-02-05T11:24:31.969Z,6.00
2023-02-05T11:27:13.153Z,6.00
2023-02-05T11:29:39.676Z,6.00
2023-02-05T11:32:17.890Z,6.00
2023-02-05T11:34:44.451Z,6.00
2023-02-05T11:37:17.052Z,6.00
2023-02-05T11:39:44.390Z,6.00
2023-02-05T11:42:17.505Z,6.00
2023-02-05T11:45:02.563Z,6.00
2023-02-05T11:47:36.933Z,6.00
2023-02-05T11:50:04.516Z,6.00
2023-02-05T11:52:34.652Z,6.00
2023-02-05T11:55:01.656Z,6.00
2023-02-05T11:57:33.210Z,6.00
2023-02-05T12:00:01.188Z,6.00
2023-02-05T12:02:28.635Z,6.00
2023-02-05T12:04:58.465Z,6.00
2023-02-05T12:07:26.717Z,6.00
2023-02-05T12:09:58.997Z,6.00
2023-02-05T12:12:31.588Z,6.00
2023-02-05T12:15:16.917Z,6.00
2023-02-05T12:17:52.253Z,6.00
2023-02-05T12:20:30.128Z,6.10
2023-02-05T12:23:11.834Z,6.10
2023-02-05T12:25:42.681Z,6.10
2023-02-05T12:28:27.792Z,6.10
2023-02-05T12:31:15.699Z,6.00
2023-02-05T12:33:45.398Z,6.00
2023-02-05T12:36:14.939Z,6.10
2023-02-05T12:38:57.202Z,6.00
2023-02-05T12:41:35.939Z,6.00
2023-02-05T12:44:14.911Z,6.00
2023-02-05T12:46:44.397Z,6.00
2023-02-05T12:49:20.640Z,6.00
2023-02-05T12:51:59.419Z,6.00
2023-02-05T12:54:46.191Z,6.00
2023-02-05T12:57:18.689Z,6.00
2023-02-05T12:59:47.765Z,6.00
2023-02-05T13:02:17.113Z,6.00
2023-02-05T13:04:47.222Z,6.00
2023-02-05T13:07:32.470Z,6.00
2023-02-05T13:10:01.715Z,6.00
2023-02-05T13:12:29.888Z,6.00
2023-02-05T13:15:10.396Z,6.00
2023-02-05T13:17:40.665Z,6.00
2023-02-05T13:20:15.084Z,6.00
2023-02-05T13:23:05.712Z,6.00
2023-02-05T13:25:40.262Z,6.00
2023-02-05T13:28:40.486Z,6.00
2023-02-05T13:31:10.142Z,6.10
2023-02-05T13:33:36.779Z,6.10
2023-02-05T13:36:21.774Z,6.10
2023-02-05T13:39:04.383Z,6.10
2023-02-05T13:41:42.985Z,6.10
2023-02-05T13:44:15.958Z,6.10
2023-02-05T13:46:48.345Z,6.10
2023-02-05T13:49:33.876Z,6.10
2023-02-05T13:52:18.632Z,6.10
2023-02-05T13:55:03.792Z,6.10
2023-02-05T13:57:42.750Z,6.10
2023-02-05T14:00:12.386Z,6.10
2023-02-05T14:02:41.312Z,6.10
2023-02-05T14:05:08.243Z,6.10
2023-02-05T14:07:38.385Z,6.10
2023-02-05T14:10:05.924Z,6.10
2023-02-05T14:12:34.125Z,6.00
2023-02-05T14:15:16.204Z,6.00
2023-02-05T14:17:42.672Z,6.00
2023-02-05T14:20:24.508Z,6.00
2023-02-05T14:23:03.963Z,6.00
2023-02-05T14:25:37.980Z,6.00
2023-02-05T14:28:16.821Z,6.00
2023-02-05T14:30:49.870Z,6.00
2023-02-05T14:33:25.607Z,5.90
2023-02-05T14:36:20.766Z,5.90
2023-02-05T14:38:57.243Z,5.90
2023-02-05T14:41:25.868Z,5.90
2023-02-05T14:43:55.870Z,5.90
2023-02-05T14:46:28.552Z,5.90
2023-02-05T14:49:01.611Z,5.80
2023-02-05T14:51:33.141Z,5.80
2023-02-05T14:54:01.732Z,5.80
2023-02-05T14:56:34.064Z,5.80
2023-02-05T14:59:05.015Z,5.80
2023-02-05T15:01:34.625Z,5.80
2023-02-05T15:04:02.587Z,5.80
2023-02-05T15:06:30.667Z,5.80
2023-02-05T15:09:05.648Z,5.80
2023-02-05T15:11:44.272Z,5.70
2023-02-05T15:14:24.509Z,5.70
2023-02-05T15:17:06.477Z,5.70
2023-02-05T15:19:34.280Z,5.70
2023-02-05T15:22:01.364Z,5.70
2023-02-05T15:24:29.656Z,5.60
2023-02-05T15:27:01.943Z,5.60
2023-02-05T15:29:30.274Z,5.60
2023-02-05T15:32:13.535Z,5.60
2023-02-05T15:34:50.944Z,5.60
2023-02-05T15:37:26.796Z,5.60
2023-02-05T15:40:01.704Z,5.60
2023-02-05T15:42:31.735Z,5.70
2023-02-05T15:44:58.303Z,5.70
2023-02-05T15:47:26.341Z,5.70
2023-02-05T15:49:57.900Z,5.70
2023-02-05T15:52:26.690Z,5.70
2023-02-05T15:54:55.768Z,5.70
2023-02-05T15:57:23.781Z,5.70
2023-02-05T15:59:51.596Z,5.70
2023-02-05T16:02:20.364Z,5.70
2023-02-05T16:04:53.960Z,5.70
2023-02-05T16:07:22.177Z,5.70
2023-02-05T16:09:52.187Z,5.70
2023-02-05T16:12:19.572Z,5.70
2023-02-05T16:14:47.853Z,5.70
2023-02-05T16:17:20.423Z,5.70
2023-02-05T16:19:49.867Z,5.80
2023-02-05T16:22:21.094Z,5.80
2023-02-05T16:24:50.455Z,5.80
2023-02-05T16:27:20.996Z,5.80
2023-02-05T16:29:49.811Z,5.80
2023-02-05T16:32:29.198Z,5.80
2023-02-05T16:34:55.818Z,5.80
2023-02-05T16:37:24.321Z,5.80
2023-02-05T16:39:53.937Z,5.80
2023-02-05T16:42:26.353Z,5.80
2023-02-05T16:45:08.144Z,5.80
2023-02-05T16:47:35.639Z,5.80
2023-02-05T16:50:23.313Z,5.80
2023-02-05T16:52:59.741Z,5.80
2023-02-05T16:55:26.263Z,5.80
2023-02-05T16:57:53.635Z,5.80
2023-02-05T17:00:21.519Z,5.80
2023-02-05T17:02:52.029Z,5.80
2023-02-05T17:05:23.295Z,5.80
2023-02-05T17:07:56.085Z,5.80
2023-02-05T17:10:22.830Z,5.90
2023-02-05T17:12:53.760Z,5.90
2023-02-05T17:15:20.257Z,5.90
2023-02-05T17:17:49.996Z,5.90
2023-02-05T17:20:16.607Z,5.90
2023-02-05T17:22:58.810Z,5.90
2023-02-05T17:25:25.992Z,5.90
2023-02-05T17:27:52.639Z,5.90
2023-02-05T17:30:20.164Z,5.90
2023-02-05T17:32:47.292Z,5.90
2023-02-05T17:35:14.347Z,5.90
2023-02-05T17:37:40.880Z,6.00
2023-02-05T17:40:07.597Z,6.00
2023-02-05T17:42:34.181Z,6.00
2023-02-05T17:45:00.787Z,6.00
2023-02-05T17:47:27.456Z,6.00
2023-02-05T17:49:54.030Z,6.10
2023-02-05T17:52:20.683Z,6.10
2023-02-05T17:54:47.255Z,6.10
2023-02-05T17:57:18.071Z,6.10
2023-02-05T17:59:45.054Z,6.10
2023-02-05T18:02:12.494Z,6.10
2023-02-05T18:04:39.474Z,6.10
2023-02-05T18:07:13.363Z,6.10
2023-02-05T18:09:39.930Z,6.00
2023-02-05T18:12:06.437Z,6.10
2023-02-05T18:14:32.983Z,6.10
2023-02-05T18:16:59.599Z,6.10
2023-02-05T18:19:33.553Z,6.10
2023-02-05T18:22:00.421Z,6.10
2023-02-05T18:24:27.112Z,6.10
2023-02-05T18:26:53.762Z,6.10
2023-02-05T18:29:21.439Z,6.10
2023-02-05T18:31:48.432Z,6.10
2023-02-05T18:34:15.138Z,6.10
2023-02-05T18:36:41.697Z,6.10
2023-02-05T18:39:09.677Z,6.10
2023-02-05T18:41:37.046Z,6.10
2023-02-05T18:44:03.653Z,6.10
2023-02-05T18:46:30.349Z,6.10
2023-02-05T18:48:58.893Z,6.10
2023-02-05T18:51:25.768Z,6.20
2023-02-05T18:53:52.679Z,6.20
2023-02-05T18:56:20.895Z,6.20
2023-02-05T18:58:51.790Z,6.30
2023-02-05T19:01:20.998Z,6.30
2023-02-05T19:03:48.044Z,6.30
2023-02-05T19:06:16.026Z,6.30
2023-02-05T19:08:45.440Z,6.30
2023-02-05T19:11:13.364Z,6.30
2023-02-05T19:13:40.432Z,6.30
2023-02-05T19:16:08.560Z,6.30
2023-02-05T19:18:35.253Z,6.30
2023-02-05T19:21:09.943Z,6.30
2023-02-05T19:23:36.885Z,6.30
2023-02-05T19:26:08.333Z,6.30
2023-02-05T19:28:37.969Z,6.20
2023-02-05T19:31:05.386Z,6.30
2023-02-05T19:33:32.793Z,6.20
2023-02-05T19:36:00.099Z,6.20
2023-02-05T19:38:28.426Z,6.20
2023-02-05T19:40:55.106Z,6.10
2023-02-05T19:43:21.737Z,6.10
2023-02-05T19:45:48.486Z,6.10
2023-02-05T19:48:15.233Z,6.10
2023-02-05T19:50:42.313Z,6.10
2023-02-05T19:53:09.996Z,6.10
2023-02-05T19:55:37.073Z,6.10
2023-02-05T19:58:03.820Z,6.10
2023-02-05T20:00:30.372Z,6.10
2023-02-05T20:02:56.961Z,6.10
2023-02-05T20:05:23.718Z,6.10
2023-02-05T20:07:53.174Z,6.10
2023-02-05T20:10:19.765Z,6.10
2023-02-05T20:12:49.498Z,6.10
2023-02-05T20:15:16.481Z,6.10
2023-02-05T20:17:43.675Z,6.10
2023-02-05T20:20:22.229Z,6.10
2023-02-05T20:22:54.936Z,6.10
2023-02-05T20:25:21.604Z,6.10
2023-02-05T20:27:48.309Z,6.10
2023-02-05T20:30:34.133Z,6.10
2023-02-05T20:33:00.912Z,6.10
2023-02-05T20:35:27.784Z,6.10
2023-02-05T20:37:54.394Z,6.10
2023-02-05T20:40:21.077Z,6.10
2023-02-05T20:42:47.829Z,6.10
2023-02-05T20:45:17.666Z,6.10
2023-02-05T20:47:46.860Z,6.10
2023-02-05T20:50:13.577Z,6.10
2023-02-05T20:52:40.190Z,6.10
2023-02-05T20:55:07.676Z,6.10
2023-02-05T20:57:34.612Z,6.00
2023-02-05T21:00:01.147Z,6.00
2023-02-05T21:02:27.976Z,6.00
2023-02-05T21:04:54.598Z,6.00
2023-02-05T21:07:25.087Z,6.00
2023-02-05T21:09:51.732Z,6.00
2023-02-05T21:12:18.327Z,5.90
2023-02-05T21:14:44.938Z,5.90
2023-02-05T21:17:11.664Z,5.90
2023-02-05T21:19:38.672Z,5.90
2023-02-05T21:22:05.388Z,6.00
2023-02-05T21:24:33.091Z,5.90
2023-02-05T21:27:00.103Z,5.90
2023-02-05T21:29:26.876Z,5.90
2023-02-05T21:31:55.477Z,5.90
2023-02-05T21:34:25.145Z,5.90
2023-02-05T21:36:52.558Z,5.90
2023-02-05T21:39:20.405Z,5.80
2023-02-05T21:41:47.651Z,5.80
2023-02-05T21:44:14.554Z,5.80
2023-02-05T21:46:41.293Z,5.80
2023-02-05T21:49:11.119Z,5.80
2023-02-05T21:51:37.708Z,5.80
2023-02-05T21:54:05.654Z,5.80
2023-02-05T21:56:34.324Z,5.80
2023-02-05T21:59:01.156Z,5.80
2023-02-05T22:01:29.116Z,5.80
2023-02-05T22:04:00.150Z,5.80
2023-02-05T22:06:27.666Z,5.80
2023-02-05T22:08:55.170Z,5.80
2023-02-05T22:11:22.344Z,5.80
2023-02-05T22:13:49.973Z,5.70
2023-02-05T22:16:20.627Z,5.80
2023-02-05T22:18:47.543Z,5.70
2023-02-05T22:21:18.415Z,5.70
2023-02-05T22:23:50.485Z,5.70
2023-02-05T22:26:21.862Z,5.70
2023-02-05T22:28:48.657Z,5.70
2023-02-05T22:31:16.274Z,5.70
2023-02-05T22:33:44.177Z,5.70
2023-02-05T22:36:11.485Z,5.60
2023-02-05T22:38:39.063Z,5.60
2023-02-05T22:41:12.058Z,5.70
2023-02-05T22:43:39.192Z,5.60
2023-02-05T22:46:10.149Z,5.60
2023-02-05T22:48:40.795Z,5.60
2023-02-05T22:51:08.528Z,5.60
2023-02-05T22:53:35.203Z,5.50
2023-02-05T22:56:06.496Z,5.50
2023-02-05T22:58:33.333Z,5.50
2023-02-05T23:01:06.897Z,5.60
2023-02-05T23:03:33.515Z,5.50
2023-02-05T23:06:00.104Z,5.50
2023-02-05T23:08:26.656Z,5.50
2023-02-05T23:10:53.167Z,5.50
2023-02-05T23:13:19.706Z,5.40
2023-02-05T23:15:46.208Z,5.40
2023-02-05T23:18:12.795Z,5.40
2023-02-05T23:20:41.002Z,5.30
2023-02-05T23:23:07.566Z,5.30
2023-02-05T23:25:35.662Z,5.30
2023-02-05T23:28:02.464Z,5.30
2023-02-05T23:30:29.139Z,5.20
2023-02-05T23:32:55.718Z,5.20
2023-02-05T23:35:22.207Z,5.20
2023-02-05T23:37:48.802Z,5.20
2023-02-05T23:40:15.317Z,5.20
2023-02-05T23:42:41.937Z,5.30
2023-02-05T23:45:08.534Z,5.30
2023-02-05T23:47:35.130Z,5.30
2023-02-05T23:50:04.960Z,5.20
2023-02-05T23:52:31.586Z,5.20
2023-02-05T23:54:58.110Z,5.30
2023-02-05T23:57:24.633Z,5.20
2023-02-05T23:59:51.228Z,5.30
